Time;durP1;ratioP1;P1;durP2;ratioP2;P2;SDS_P1;SDS_P2;PMS_P1;PMS_P2;Temp;Humidity;BMP_temperature;BMP_pressure;BME280_temperature;BME280_humidity;BME280_pressure;Samples;Min_cycle;Max_cycle;Signal;HPM_P1;HPM_P2
2022/05/07 00:07:49;;;;;;;0.20;0.10;;;16.50;99.90;;;;;;25649370;23;20194;-71
2022/05/07 00:18:06;;;;;;;0.20;0.10;;;16.70;99.90;;;;;;25625793;23;20181;-72
2022/05/07 00:28:11;;;;;;;0.20;0.10;;;16.60;99.90;;;;;;25622887;23;20194;-71
2022/05/07 00:38:15;;;;;;;0.20;0.00;;;16.90;99.90;;;;;;25650746;23;20254;-72
2022/05/07 00:48:20;;;;;;;0.20;0.10;;;16.90;99.90;;;;;;25630706;23;20186;-71
2022/05/07 00:58:25;;;;;;;0.20;0.10;;;16.70;99.90;;;;;;25632999;23;20194;-71
2022/05/07 01:08:32;;;;;;;0.20;0.10;;;16.60;99.90;;;;;;25632350;23;20195;-72
2022/05/07 01:18:36;;;;;;;0.20;0.10;;;16.90;99.90;;;;;;25657036;23;20170;-73
2022/05/07 01:28:41;;;;;;;0.20;0.07;;;16.80;99.90;;;;;;25658456;23;20198;-74
2022/05/07 01:38:45;;;;;;;0.20;0.10;;;16.90;99.90;;;;;;25653821;23;20190;-73
2022/05/07 01:48:50;;;;;;;0.20;0.10;;;16.90;99.90;;;;;;25632148;23;20201;-73
2022/05/07 01:58:54;;;;;;;0.20;0.10;;;16.80;99.90;;;;;;25652283;23;20187;-72
2022/05/07 02:09:01;;;;;;;0.20;0.10;;;16.80;99.90;;;;;;25654322;23;20260;-73
2022/05/07 02:19:04;;;;;;;0.20;0.10;;;16.90;99.90;;;;;;25653143;23;20173;-72
2022/05/07 02:29:10;;;;;;;0.20;0.10;;;17.10;99.90;;;;;;25654231;23;20189;-72
2022/05/07 02:39:14;;;;;;;0.20;0.10;;;16.80;99.90;;;;;;25628226;23;20485;-72
2022/05/07 02:49:19;;;;;;;0.20;0.10;;;16.30;99.90;;;;;;25653771;23;20190;-71
2022/05/07 02:59:23;;;;;;;0.20;0.00;;;16.10;99.90;;;;;;25623651;23;20200;-72
2022/05/07 03:09:28;;;;;;;0.20;0.10;;;16.00;99.90;;;;;;25650690;23;20190;-71
2022/05/07 03:19:32;;;;;;;0.20;0.10;;;16.80;99.90;;;;;;25652203;23;20170;-72
2022/05/07 03:29:37;;;;;;;0.20;0.10;;;16.80;99.90;;;;;;25623944;23;20193;-72
2022/05/07 03:39:42;;;;;;;0.20;0.10;;;16.70;99.90;;;;;;25624754;23;20194;-71
2022/05/07 03:49:47;;;;;;;0.20;0.10;;;16.80;99.90;;;;;;25650487;23;20201;-72
2022/05/07 03:59:51;;;;;;;0.20;0.10;;;16.80;99.90;;;;;;25648868;23;20201;-72
2022/05/07 04:09:56;;;;;;;0.20;0.10;;;16.80;99.90;;;;;;25621163;23;20600;-72
2022/05/07 04:20:01;;;;;;;0.20;0.10;;;17.00;99.90;;;;;;25656377;23;20158;-72
2022/05/07 04:30:09;;;;;;;0.20;0.10;;;17.00;99.90;;;;;;25656401;23;20185;-73
2022/05/07 04:40:13;;;;;;;0.20;0.10;;;17.10;99.90;;;;;;25657524;23;20198;-73
2022/05/07 04:50:18;;;;;;;0.20;0.10;;;16.90;99.90;;;;;;25654264;23;20205;-71
2022/05/07 05:00:22;;;;;;;0.20;0.10;;;16.80;99.90;;;;;;25657708;23;20206;-72
2022/05/07 05:10:27;;;;;;;0.20;0.10;;;16.80;99.90;;;;;;25657206;23;20190;-72
2022/05/07 05:20:31;;;;;;;0.20;0.10;;;16.70;99.90;;;;;;25631541;23;20170;-71
2022/05/07 05:30:36;;;;;;;0.20;0.10;;;16.70;99.90;;;;;;25656651;23;20394;-73
2022/05/07 05:40:41;;;;;;;0.20;0.10;;;16.80;99.90;;;;;;25654181;23;20194;-73
2022/05/07 05:50:47;;;;;;;0.20;0.10;;;16.80;99.90;;;;;;25656236;23;20415;-73
2022/05/07 06:00:52;;;;;;;0.20;0.10;;;16.70;99.90;;;;;;25625978;23;20270;-74
2022/05/07 06:10:58;;;;;;;0.20;0.10;;;16.50;99.90;;;;;;25654700;23;20182;-73
2022/05/07 06:21:03;;;;;;;0.20;0.10;;;16.90;99.90;;;;;;25625023;23;20178;-72
2022/05/07 06:31:09;;;;;;;0.20;0.10;;;16.90;99.90;;;;;;25652751;23;20186;-72
2022/05/07 06:41:14;;;;;;;0.20;0.10;;;17.10;99.90;;;;;;25629478;23;20203;-75
2022/05/07 06:51:19;;;;;;;0.20;0.20;;;17.30;99.90;;;;;;25651460;23;20202;-76
2022/05/07 07:01:23;;;;;;;0.20;0.10;;;17.50;99.90;;;;;;25653141;23;20205;-74
2022/05/07 07:11:29;;;;;;;0.20;0.10;;;17.80;99.90;;;;;;25622672;23;20194;-73
2022/05/07 07:21:33;;;;;;;0.20;0.03;;;18.00;99.90;;;;;;25624633;23;20179;-74
2022/05/07 07:31:38;;;;;;;0.20;0.10;;;18.40;99.90;;;;;;25652832;23;20194;-74
2022/05/07 07:41:42;;;;;;;0.20;0.10;;;18.80;99.90;;;;;;25652255;23;20201;-76
2022/05/07 07:51:47;;;;;;;0.20;0.10;;;19.20;99.90;;;;;;25657494;23;20213;-75
2022/05/07 08:01:51;;;;;;;0.20;0.10;;;19.60;99.90;;;;;;25638792;23;20174;-77
2022/05/07 08:11:59;;;;;;;0.20;0.10;;;20.20;99.90;;;;;;25635603;23;20193;-73
2022/05/07 08:22:03;;;;;;;0.20;0.10;;;20.70;99.90;;;;;;25663101;23;20185;-74
2022/05/07 08:32:10;;;;;;;0.20;0.10;;;21.00;99.90;;;;;;25632373;23;20186;-74
2022/05/07 08:42:14;;;;;;;0.20;0.00;;;21.40;99.90;;;;;;25631972;23;20198;-76
2022/05/07 08:52:19;;;;;;;0.20;0.00;;;21.70;99.90;;;;;;25606385;23;20202;-73
2022/05/07 09:02:23;;;;;;;0.20;0.10;;;22.40;99.90;;;;;;25627261;23;20174;-72
2022/05/07 09:12:29;;;;;;;0.20;0.07;;;22.30;99.90;;;;;;25650831;23;20206;-72
2022/05/07 09:22:33;;;;;;;0.20;0.00;;;22.70;99.90;;;;;;25623885;23;20189;-74
2022/05/07 09:32:39;;;;;;;3.50;0.73;;;23.00;99.90;;;;;;25652537;23;20597;-75
2022/05/07 09:42:44;;;;;;;0.20;0.10;;;22.10;99.90;;;;;;25648789;23;20201;-73
2022/05/07 10:03:20;;;;;;;0.20;0.10;;;21.50;99.90;;;;;;25587209;23;20178;-73
2022/05/07 10:13:26;;;;;;;0.20;0.10;;;21.70;99.90;;;;;;25650350;23;20185;-74
2022/05/07 10:23:30;;;;;;;1.70;1.60;;;21.90;99.90;;;;;;25646155;23;20214;-75
2022/05/07 10:33:41;;;;;;;0.20;0.00;;;22.50;99.90;;;;;;25649643;23;20193;-76
2022/05/07 10:43:49;;;;;;;0.20;0.17;;;23.00;99.90;;;;;;25621792;23;20206;-73
2022/05/07 10:53:57;;;;;;;0.20;0.10;;;22.80;99.90;;;;;;25646500;23;20213;-73
2022/05/07 11:04:05;;;;;;;0.20;0.00;;;23.40;99.90;;;;;;25650516;23;20163;-73
2022/05/07 11:14:11;;;;;;;0.20;0.10;;;23.00;99.90;;;;;;25648924;23;20193;-74
2022/05/07 11:24:19;;;;;;;0.20;0.00;;;23.50;99.90;;;;;;25646107;23;20273;-79
2022/05/07 11:34:32;;;;;;;0.20;0.00;;;25.10;99.90;;;;;;25647087;23;20197;-75
2022/05/07 11:55:05;;;;;;;0.20;0.10;;;25.60;99.90;;;;;;25619100;23;20476;-74
2022/05/07 12:05:09;;;;;;;0.20;0.00;;;25.80;99.90;;;;;;25616354;23;20183;-74
2022/05/07 12:15:15;;;;;;;0.20;0.03;;;24.60;99.90;;;;;;25620482;23;20194;-75
2022/05/07 12:35:41;;;;;;;0.20;0.00;;;24.70;99.90;;;;;;25648423;23;20209;-75
2022/05/07 12:45:45;;;;;;;0.20;0.05;;;24.50;99.90;;;;;;25626756;23;20194;-76
2022/05/07 12:55:51;;;;;;;0.28;0.08;;;24.50;99.90;;;;;;25651507;23;20505;-75
2022/05/07 13:05:55;;;;;;;0.20;0.00;;;24.70;99.90;;;;;;25613917;23;20178;-73
2022/05/07 13:16:00;;;;;;;0.22;0.22;;;25.80;99.90;;;;;;25641068;23;20493;-74
2022/05/07 13:26:04;;;;;;;0.20;0.03;;;24.00;99.90;;;;;;25640782;23;20620;-74
2022/05/07 13:36:09;;;;;;;0.20;0.10;;;23.90;99.90;;;;;;25643783;23;20194;-73
2022/05/07 13:46:13;;;;;;;0.20;0.00;;;25.60;99.90;;;;;;25645086;23;20194;-73
2022/05/07 13:56:18;;;;;;;0.20;0.20;;;26.30;99.90;;;;;;25645573;23;20277;-72
2022/05/07 14:06:22;;;;;;;1.45;0.43;;;26.50;99.90;;;;;;25623088;23;20166;-72
2022/05/07 14:16:28;;;;;;;0.20;0.20;;;26.90;99.90;;;;;;25651936;23;20209;-73
2022/05/07 14:26:32;;;;;;;0.20;0.00;;;27.80;99.90;;;;;;25643983;23;20193;-73
2022/05/07 14:36:37;;;;;;;0.20;0.10;;;27.30;99.90;;;;;;25644908;23;20209;-72
2022/05/07 14:46:41;;;;;;;0.47;0.43;;;26.80;99.90;;;;;;25643026;23;20162;-73
2022/05/07 14:56:47;;;;;;;0.20;0.00;;;27.70;99.90;;;;;;25644199;23;20202;-73
2022/05/07 15:06:50;;;;;;;0.30;0.30;;;25.90;99.90;;;;;;25645975;23;20159;-69
2022/05/07 15:16:57;;;;;;;0.20;0.10;;;26.70;99.90;;;;;;25622016;23;20185;-75
2022/05/07 15:27:00;;;;;;;0.20;0.10;;;26.40;99.90;;;;;;25644116;23;20163;-75
2022/05/07 15:37:07;;;;;;;0.20;0.00;;;26.80;99.90;;;;;;25608198;23;20213;-73
2022/05/07 15:47:11;;;;;;;0.25;0.25;;;25.30;99.90;;;;;;25634468;23;20166;-75
2022/05/07 15:57:16;;;;;;;0.20;0.00;;;24.90;99.90;;;;;;25631718;23;20209;-73
2022/05/07 16:07:21;;;;;;;0.20;0.00;;;23.10;99.90;;;;;;25634902;23;20174;-74
2022/05/07 16:17:26;;;;;;;0.20;0.03;;;22.70;99.90;;;;;;25641559;23;20198;-73
2022/05/07 16:27:30;;;;;;;0.20;0.10;;;22.70;99.90;;;;;;25644593;23;20174;-75
2022/05/07 16:37:35;;;;;;;0.20;0.10;;;22.50;99.90;;;;;;25643320;23;20202;-72
2022/05/07 16:47:40;;;;;;;0.20;0.00;;;22.10;99.90;;;;;;25624793;23;20174;-73
2022/05/07 16:57:46;;;;;;;0.57;0.57;;;21.90;99.90;;;;;;25647480;23;20185;-73
2022/05/07 17:07:50;;;;;;;0.20;0.00;;;22.10;99.90;;;;;;25645584;23;20163;-74
2022/05/07 17:17:58;;;;;;;0.20;0.10;;;23.20;99.90;;;;;;25644918;23;20166;-74
2022/05/07 17:28:01;;;;;;;0.20;0.10;;;24.60;99.90;;;;;;25593737;23;20238;-74
2022/05/07 17:38:07;;;;;;;0.20;0.00;;;25.10;99.90;;;;;;25618238;23;20197;-72
2022/05/07 17:58:33;;;;;;;0.20;0.00;;;23.20;99.90;;;;;;25646741;23;20194;-73
2022/05/07 18:08:37;;;;;;;0.20;0.10;;;21.20;99.90;;;;;;25618871;23;20269;-71
2022/05/07 18:18:42;;;;;;;0.20;0.10;;;20.40;99.90;;;;;;25646313;23;20170;-78
2022/05/07 18:28:46;;;;;;;0.20;0.00;;;20.10;99.90;;;;;;25619145;23;20193;-70
2022/05/07 18:49:13;;;;;;;0.20;0.10;;;19.40;99.90;;;;;;25627798;23;20285;-71
2022/05/07 18:59:18;;;;;;;0.20;0.10;;;19.20;99.90;;;;;;25652134;23;20183;-73
2022/05/07 19:09:22;;;;;;;0.20;0.00;;;19.10;99.90;;;;;;25651678;23;20193;-71
2022/05/07 19:19:28;;;;;;;0.20;0.00;;;18.90;99.90;;;;;;25624772;23;20185;-74
2022/05/07 19:29:33;;;;;;;0.20;0.10;;;18.80;99.90;;;;;;25629720;23;20191;-73
2022/05/07 19:39:38;;;;;;;0.20;0.10;;;18.80;99.90;;;;;;25653028;23;20198;-72
2022/05/07 19:49:42;;;;;;;0.20;0.10;;;18.20;99.90;;;;;;25654897;23;20221;-73
2022/05/07 19:59:47;;;;;;;0.20;0.10;;;18.10;99.90;;;;;;25648616;23;20189;-73
2022/05/07 20:09:51;;;;;;;0.20;0.00;;;18.30;99.90;;;;;;25626776;23;20193;-72
2022/05/07 20:19:56;;;;;;;0.20;0.10;;;18.30;99.90;;;;;;25626417;23;20170;-72
2022/05/07 20:30:01;;;;;;;0.20;0.10;;;18.20;99.90;;;;;;25627213;23;20225;-73
2022/05/07 20:40:08;;;;;;;0.20;0.10;;;18.20;99.90;;;;;;25648500;23;20248;-74
2022/05/07 20:50:12;;;;;;;0.20;0.00;;;18.40;99.90;;;;;;25649796;23;20193;-72
2022/05/07 21:00:19;;;;;;;0.20;0.10;;;18.10;99.90;;;;;;25651658;23;20533;-72
2022/05/07 21:10:22;;;;;;;0.20;0.03;;;18.40;99.90;;;;;;25624230;23;20197;-71
2022/05/07 21:20:27;;;;;;;0.30;0.30;;;18.10;99.90;;;;;;25604260;23;20470;-72
2022/05/07 21:30:31;;;;;;;0.20;0.07;;;18.10;99.90;;;;;;25635637;23;20210;-71
2022/05/07 21:40:37;;;;;;;0.20;0.00;;;18.20;99.90;;;;;;25654855;23;20208;-72
2022/05/07 22:01:10;;;;;;;0.20;0.10;;;18.70;99.90;;;;;;25622020;23;20193;-72
2022/05/07 22:11:15;;;;;;;0.20;0.03;;;18.90;99.90;;;;;;25651303;23;20194;-72
2022/05/07 22:21:23;;;;;;;0.20;0.00;;;18.90;99.90;;;;;;25627528;23;20263;-73
2022/05/07 22:31:27;;;;;;;0.20;0.10;;;18.90;99.90;;;;;;25624348;23;20201;-71
2022/05/07 22:41:32;;;;;;;0.20;0.10;;;18.90;99.90;;;;;;25654498;23;20198;-72
2022/05/07 22:51:36;;;;;;;0.20;0.10;;;18.90;99.90;;;;;;25651179;23;20197;-71
2022/05/07 23:01:42;;;;;;;0.20;0.00;;;18.70;99.90;;;;;;25654278;23;20151;-71
2022/05/07 23:11:46;;;;;;;0.20;0.10;;;18.70;99.90;;;;;;25627337;23;20182;-72
2022/05/07 23:21:51;;;;;;;0.20;0.10;;;18.70;99.90;;;;;;25623751;23;20182;-72
2022/05/07 23:31:55;;;;;;;0.20;0.10;;;18.50;99.90;;;;;;25651558;23;20358;-72
2022/05/07 23:42:00;;;;;;;0.20;0.10;;;18.40;99.90;;;;;;25624044;23;20221;-73
2022/05/07 23:52:05;;;;;;;0.20;0.10;;;18.40;99.90;;;;;;25650805;23;20705;-73
